createdAt,value
2018-02-10T00:01:50.769Z,180.02
2018-02-10T00:04:19.676Z,186.60
2018-02-10T00:06:47.981Z,196.55
2018-02-10T00:09:16.315Z,184.50
2018-02-10T00:11:44.772Z,174.15
2018-02-10T00:14:13.887Z,183.95
2018-02-10T00:16:42.221Z,173.43
2018-02-10T00:19:10.576Z,169.55
2018-02-10T00:21:38.926Z,170.43
2018-02-10T00:24:07.244Z,193.37
2018-02-10T00:26:35.978Z,174.68
2018-02-10T00:29:04.541Z,173.87
2018-02-10T00:31:32.902Z,158.48
2018-02-10T00:34:01.275Z,169.73
2018-02-10T00:36:30.413Z,172.32
2018-02-10T00:38:59.306Z,178.87
2018-02-10T00:41:27.716Z,170.00
2018-02-10T00:43:56.090Z,186.77
2018-02-10T00:46:24.437Z,171.00
2018-02-10T00:48:53.273Z,168.23
2018-02-10T00:51:21.643Z,175.02
2018-02-10T00:53:50.851Z,171.43
2018-02-10T00:56:19.212Z,177.65
2018-02-10T00:58:47.540Z,174.38
2018-02-10T01:01:15.957Z,172.50
2018-02-10T01:03:44.351Z,174.02
2018-02-10T01:06:12.756Z,172.62
2018-02-10T01:08:41.179Z,172.52
2018-02-10T01:11:10.028Z,180.35
2018-02-10T01:13:38.421Z,178.70
2018-02-10T01:16:07.507Z,181.48
2018-02-10T01:18:36.633Z,166.15
2018-02-10T01:21:04.969Z,186.77
2018-02-10T01:23:33.376Z,179.63
2018-02-10T01:26:02.545Z,183.20
2018-02-10T01:28:30.925Z,174.10
2018-02-10T01:30:59.307Z,175.18
2018-02-10T01:33:27.877Z,166.55
2018-02-10T01:35:56.183Z,174.70
2018-02-10T01:38:25.283Z,183.50
2018-02-10T01:40:54.384Z,166.90
2018-02-10T01:43:23.482Z,181.90
2018-02-10T01:45:52.561Z,164.15
2018-02-10T01:48:20.916Z,177.02
2018-02-10T01:50:49.228Z,163.87
2018-02-10T01:53:18.300Z,166.52
2018-02-10T01:55:46.808Z,166.02
2018-02-10T01:58:15.143Z,169.77
2018-02-10T02:00:43.489Z,158.15
2018-02-10T02:03:11.814Z,170.90
2018-02-10T02:05:40.124Z,162.23
2018-02-10T02:08:08.596Z,172.25
2018-02-10T02:10:37.715Z,151.93
2018-02-10T02:13:06.071Z,170.27
2018-02-10T02:15:35.308Z,178.05
2018-02-10T02:18:03.845Z,174.73
2018-02-10T02:20:32.162Z,151.93
2018-02-10T02:23:00.481Z,168.93
2018-02-10T02:25:28.823Z,165.62
2018-02-10T02:27:57.144Z,170.90
2018-02-10T02:30:25.477Z,162.23
2018-02-10T02:32:53.844Z,160.95
2018-02-10T02:35:22.181Z,160.32
2018-02-10T02:37:50.509Z,174.10
2018-02-10T02:40:18.940Z,167.75
2018-02-10T02:42:47.382Z,159.90
2018-02-10T02:45:15.691Z,161.05
2018-02-10T02:47:44.008Z,176.90
2018-02-10T02:50:13.070Z,156.20
2018-02-10T02:52:41.393Z,152.07
2018-02-10T02:55:09.759Z,162.20
2018-02-10T02:57:38.070Z,160.07
2018-02-10T03:00:06.404Z,188.15
2018-02-10T03:02:34.935Z,162.10
2018-02-10T03:05:03.260Z,152.18
2018-02-10T03:07:31.592Z,146.43
2018-02-10T03:10:00.010Z,156.55
2018-02-10T03:12:28.354Z,148.32
2018-02-10T03:14:56.675Z,147.98
2018-02-10T03:17:25.209Z,162.55
2018-02-10T03:19:53.556Z,157.57
2018-02-10T03:22:21.895Z,160.43
2018-02-10T03:24:51.121Z,178.62
2018-02-10T03:27:20.258Z,151.52
2018-02-10T03:29:48.677Z,150.20
2018-02-10T03:32:17.369Z,162.88
2018-02-10T03:34:45.726Z,154.40
2018-02-10T03:37:14.171Z,149.27
2018-02-10T03:39:42.630Z,149.48
2018-02-10T03:42:10.974Z,147.05
2018-02-10T03:44:39.355Z,152.68
2018-02-10T03:47:08.267Z,155.48
2018-02-10T03:49:36.636Z,154.75
2018-02-10T03:52:05.024Z,157.12
2018-02-10T03:54:33.392Z,143.75
2018-02-10T03:57:01.739Z,136.73
2018-02-10T03:59:30.090Z,144.87
2018-02-10T04:01:58.539Z,153.15
2018-02-10T04:04:26.929Z,152.18
2018-02-10T04:06:55.266Z,157.52
2018-02-10T04:09:23.814Z,155.02
2018-02-10T04:11:52.984Z,146.40
2018-02-10T04:14:21.367Z,149.15
2018-02-10T04:16:49.812Z,156.07
2018-02-10T04:19:18.187Z,133.87
2018-02-10T04:21:46.512Z,148.90
2018-02-10T04:24:15.910Z,146.73
2018-02-10T04:26:45.084Z,150.25
2018-02-10T04:29:13.736Z,154.50
2018-02-10T04:31:42.323Z,143.25
2018-02-10T04:34:10.636Z,148.15
2018-02-10T04:36:39.001Z,138.82
2018-02-10T04:39:07.405Z,145.87
2018-02-10T04:41:35.773Z,156.50
2018-02-10T04:44:04.162Z,141.60
2018-02-10T04:46:32.532Z,146.10
2018-02-10T04:49:00.903Z,133.77
2018-02-10T04:51:29.265Z,148.52
2018-02-10T04:53:58.186Z,137.05
2018-02-10T04:56:26.611Z,144.87
2018-02-10T04:58:55.093Z,141.27
2018-02-10T05:01:23.436Z,140.70
2018-02-10T05:03:51.808Z,140.30
2018-02-10T05:06:20.163Z,144.05
2018-02-10T05:08:48.568Z,132.85
2018-02-10T05:11:16.888Z,154.48
2018-02-10T05:13:45.219Z,145.52
2018-02-10T05:16:14.051Z,134.45
2018-02-10T05:18:42.392Z,140.30
2018-02-10T05:21:10.778Z,141.35
2018-02-10T05:23:39.236Z,136.15
2018-02-10T05:26:07.593Z,140.90
2018-02-10T05:28:36.015Z,147.87
2018-02-10T05:31:04.606Z,127.78
2018-02-10T05:33:33.048Z,152.48
2018-02-10T05:36:01.566Z,131.18
2018-02-10T05:38:30.046Z,138.00
2018-02-10T05:40:58.396Z,129.32
2018-02-10T05:43:26.814Z,150.12
2018-02-10T05:45:56.077Z,139.00
2018-02-10T05:48:24.493Z,132.12
2018-02-10T05:50:52.842Z,127.80
2018-02-10T05:53:21.241Z,140.48
2018-02-10T05:55:49.621Z,145.40
2018-02-10T05:58:18.043Z,141.73
2018-02-10T06:00:46.789Z,123.38
2018-02-10T06:03:15.164Z,135.27
2018-02-10T06:05:43.516Z,129.87
2018-02-10T06:08:11.855Z,124.40
2018-02-10T06:10:40.954Z,133.93
2018-02-10T06:13:10.120Z,132.60
2018-02-10T06:15:38.614Z,134.85
2018-02-10T06:18:07.071Z,148.35
2018-02-10T06:20:35.388Z,140.70
2018-02-10T06:23:04.028Z,133.63
2018-02-10T06:25:32.452Z,129.07
2018-02-10T06:28:01.565Z,145.90
2018-02-10T06:30:30.008Z,134.43
2018-02-10T06:32:59.208Z,145.00
2018-02-10T06:35:27.578Z,146.27
2018-02-10T06:37:55.940Z,124.47
2018-02-10T06:40:24.350Z,132.68
2018-02-10T06:42:53.485Z,142.77
2018-02-10T06:45:22.228Z,135.43
2018-02-10T06:47:50.581Z,135.37
2018-02-10T06:50:18.926Z,130.50
2018-02-10T06:52:47.370Z,133.82
2018-02-10T06:55:15.721Z,155.95
2018-02-10T06:57:44.142Z,145.57
2018-02-10T07:00:13.328Z,141.80
2018-02-10T07:02:41.658Z,143.20
2018-02-10T07:05:09.992Z,139.93
2018-02-10T07:07:39.200Z,144.35
2018-02-10T07:10:07.541Z,139.50
2018-02-10T07:12:35.868Z,141.00
2018-02-10T07:15:05.010Z,131.35
2018-02-10T07:17:33.325Z,142.98
2018-02-10T07:20:02.496Z,139.73
2018-02-10T07:22:31.668Z,139.35
2018-02-10T07:25:00.077Z,128.15
2018-02-10T07:27:28.398Z,125.70
2018-02-10T07:29:57.391Z,132.25
2018-02-10T07:32:25.747Z,141.30
2018-02-10T07:34:54.125Z,129.95
2018-02-10T07:37:23.266Z,135.63
2018-02-10T07:39:51.652Z,130.20
2018-02-10T07:42:19.978Z,128.80
2018-02-10T07:44:48.358Z,128.20
2018-02-10T07:47:16.712Z,127.35
2018-02-10T07:49:45.038Z,105.37
2018-02-10T07:52:13.913Z,120.10
2018-02-10T07:54:42.251Z,117.97
2018-02-10T07:57:10.587Z,122.82
2018-02-10T07:59:38.955Z,128.65
2018-02-10T08:02:08.017Z,138.57
2018-02-10T08:04:36.352Z,130.02
2018-02-10T08:07:04.703Z,122.68
2018-02-10T08:09:33.791Z,129.65
2018-02-10T08:12:02.141Z,128.35
2018-02-10T08:14:30.881Z,125.25
2018-02-10T08:16:59.208Z,132.10
2018-02-10T08:19:27.529Z,127.20
2018-02-10T08:21:56.639Z,116.85
2018-02-10T08:24:25.656Z,121.15
2018-02-10T08:26:53.976Z,123.65
2018-02-10T08:29:22.326Z,121.18
2018-02-10T08:31:50.629Z,125.40
2018-02-10T08:34:18.948Z,132.40
2018-02-10T08:36:47.433Z,137.62
2018-02-10T08:39:15.807Z,130.98
2018-02-10T08:41:44.145Z,128.27
2018-02-10T08:44:12.504Z,142.25
2018-02-10T08:46:40.835Z,138.68
2018-02-10T08:49:09.187Z,133.10
2018-02-10T08:51:37.530Z,135.23
2018-02-10T08:54:05.877Z,125.57
2018-02-10T08:56:34.224Z,137.00
2018-02-10T08:59:02.912Z,132.50
2018-02-10T09:01:31.322Z,140.90
2018-02-10T09:03:59.596Z,129.30
2018-02-10T09:06:27.967Z,129.50
2018-02-10T09:08:57.068Z,128.20
2018-02-10T09:11:25.392Z,131.93
2018-02-10T09:13:53.748Z,132.43
2018-02-10T09:16:22.087Z,126.77
2018-02-10T09:18:50.428Z,132.07
2018-02-10T09:21:19.068Z,133.40
2018-02-10T09:23:47.427Z,132.23
2018-02-10T09:26:16.536Z,133.20
2018-02-10T09:28:45.684Z,132.13
2018-02-10T09:31:13.996Z,126.67
2018-02-10T09:33:42.341Z,127.83
2018-02-10T09:36:10.712Z,125.63
2018-02-10T09:38:39.066Z,119.77
2018-02-10T09:41:07.458Z,124.40
2018-02-10T09:43:36.400Z,124.03
2018-02-10T09:46:04.806Z,136.17
2018-02-10T09:48:33.901Z,137.53
2018-02-10T09:51:02.996Z,131.57
2018-02-10T09:53:48.701Z,123.73
2018-02-10T09:56:17.117Z,123.93
2018-02-10T09:58:46.321Z,132.67
2018-02-10T10:01:14.758Z,125.17
2018-02-10T10:03:43.651Z,124.97
2018-02-10T10:06:11.963Z,121.43
2018-02-10T10:08:40.309Z,118.37
2018-02-10T10:11:08.666Z,107.83
2018-02-10T10:13:37.744Z,121.37
2018-02-10T10:16:06.072Z,122.03
2018-02-10T10:18:34.479Z,117.93
2018-02-10T10:21:02.831Z,123.10
2018-02-10T10:23:31.165Z,116.97
2018-02-10T10:26:00.713Z,113.63
2018-02-10T10:28:29.060Z,125.30
2018-02-10T10:30:58.204Z,117.20
2018-02-10T10:33:26.567Z,113.70
2018-02-10T10:35:54.983Z,112.13
2018-02-10T10:38:23.382Z,116.40
2018-02-10T10:40:52.531Z,102.30
2018-02-10T10:43:21.425Z,101.10
2018-02-10T10:45:49.793Z,108.83
2018-02-10T10:48:18.256Z,104.20
2018-02-10T10:50:48.220Z,97.13
2018-02-10T10:53:16.561Z,103.00
2018-02-10T10:55:45.047Z,95.80
2018-02-10T10:58:13.416Z,102.00
2018-02-10T11:00:41.760Z,99.87
2018-02-10T11:03:10.140Z,103.30
2018-02-10T11:05:38.508Z,94.37
2018-02-10T11:08:06.886Z,91.70
2018-02-10T11:10:35.436Z,100.20
2018-02-10T11:13:03.798Z,99.53
2018-02-10T11:15:32.144Z,100.60
2018-02-10T11:18:00.494Z,97.10
2018-02-10T11:20:28.812Z,92.70
2018-02-10T11:22:57.953Z,98.77
2018-02-10T11:25:26.411Z,97.07
2018-02-10T11:27:55.525Z,94.40
2018-02-10T11:30:23.887Z,96.97
2018-02-10T11:32:52.650Z,90.83
2018-02-10T11:35:20.977Z,97.13
2018-02-10T11:37:49.368Z,87.77
2018-02-10T11:40:17.787Z,94.33
2018-02-10T11:42:46.224Z,87.67
2018-02-10T11:45:14.657Z,87.23
2018-02-10T11:47:43.053Z,78.87
2018-02-10T11:50:11.400Z,72.87
2018-02-10T11:52:39.853Z,68.03
2018-02-10T11:55:08.489Z,69.13
2018-02-10T11:57:37.560Z,57.13
2018-02-10T12:00:05.875Z,65.47
2018-02-10T12:02:34.221Z,61.83
2018-02-10T12:05:02.758Z,64.40
2018-02-10T12:07:31.087Z,77.67
2018-02-10T12:10:00.281Z,67.40
2018-02-10T12:12:29.445Z,69.43
2018-02-10T12:14:57.786Z,65.10
2018-02-10T12:17:26.366Z,67.27
2018-02-10T12:19:55.476Z,70.87
2018-02-10T12:22:23.811Z,66.10
2018-02-10T12:24:52.175Z,64.27
2018-02-10T12:27:20.531Z,69.20
2018-02-10T12:29:48.851Z,67.10
2018-02-10T12:32:17.247Z,64.13
2018-02-10T12:34:46.628Z,61.10
2018-02-10T12:37:14.973Z,69.07
2018-02-10T12:39:43.429Z,72.97
2018-02-10T12:42:11.771Z,67.27
2018-02-10T12:44:40.242Z,64.00
2018-02-10T12:47:08.588Z,79.93
2018-02-10T12:49:36.900Z,85.57
2018-02-10T12:52:05.235Z,68.03
2018-02-10T12:54:33.616Z,67.17
2018-02-10T12:57:01.929Z,65.80
2018-02-10T12:59:30.238Z,58.13
2018-02-10T13:01:58.930Z,59.33
2018-02-10T13:04:27.374Z,61.00
2018-02-10T13:06:55.733Z,68.63
2018-02-10T13:09:24.607Z,67.90
2018-02-10T13:11:52.955Z,60.30
2018-02-10T13:14:22.087Z,61.37
2018-02-10T13:16:50.449Z,58.77
2018-02-10T13:19:18.765Z,64.27
2018-02-10T13:21:47.134Z,69.20
2018-02-10T13:24:15.751Z,63.60
2018-02-10T13:26:44.111Z,62.53
2018-02-10T13:29:12.474Z,56.50
2018-02-10T13:31:40.832Z,57.83
2018-02-10T13:34:09.145Z,60.13
2018-02-10T13:36:37.464Z,61.90
2018-02-10T13:39:05.822Z,61.90
2018-02-10T13:41:34.168Z,54.50
2018-02-10T13:44:02.501Z,64.73
2018-02-10T13:46:31.269Z,60.30
2018-02-10T13:48:59.615Z,52.60
2018-02-10T13:51:27.944Z,58.67
2018-02-10T13:53:57.072Z,57.57
2018-02-10T13:56:25.384Z,56.83
2018-02-10T13:58:53.754Z,55.53
2018-02-10T14:01:22.109Z,57.00
2018-02-10T14:03:50.459Z,56.90
2018-02-10T14:06:19.560Z,59.93
2018-02-10T14:08:49.188Z,56.80
2018-02-10T14:11:17.542Z,60.50
2018-02-10T14:13:45.836Z,51.27
2018-02-10T14:16:14.272Z,56.23
2018-02-10T14:18:42.639Z,57.70
2018-02-10T14:21:10.998Z,56.15
2018-02-10T14:23:40.292Z,52.90
2018-02-10T14:26:08.638Z,58.60
2018-02-10T14:28:37.789Z,55.80
2018-02-10T14:31:07.628Z,60.80
2018-02-10T14:33:35.942Z,51.75
2018-02-10T14:36:05.013Z,52.33
2018-02-10T14:38:33.368Z,60.35
2018-02-10T14:41:01.763Z,56.83
2018-02-10T14:43:30.106Z,61.10
2018-02-10T14:45:58.465Z,59.65
2018-02-10T14:48:26.776Z,57.47
2018-02-10T14:50:55.895Z,61.08
2018-02-10T14:53:24.335Z,58.20
2018-02-10T14:55:52.645Z,63.10
2018-02-10T14:58:20.975Z,65.80
2018-02-10T15:00:49.360Z,65.95
2018-02-10T15:03:17.721Z,62.38
2018-02-10T15:05:46.040Z,64.45
2018-02-10T15:08:14.423Z,64.35
2018-02-10T15:10:42.812Z,66.78
2018-02-10T15:13:11.198Z,78.43
2018-02-10T15:15:39.831Z,70.87
2018-02-10T15:18:08.336Z,69.00
2018-02-10T15:20:36.681Z,74.78
2018-02-10T15:23:05.820Z,67.87
2018-02-10T15:25:34.166Z,71.30
2018-02-10T15:28:02.573Z,71.65
2018-02-10T15:30:49.060Z,82.35
2018-02-10T15:33:35.098Z,83.75
2018-02-10T15:36:03.439Z,83.12
2018-02-10T15:38:31.782Z,88.95
2018-02-10T15:41:00.892Z,83.03
2018-02-10T15:43:29.260Z,87.97
2018-02-10T15:45:57.651Z,87.70
2018-02-10T15:48:25.965Z,81.12
2018-02-10T15:50:54.501Z,89.68
2018-02-10T15:53:23.642Z,84.40
2018-02-10T15:55:51.973Z,83.55
2018-02-10T15:58:20.301Z,94.68
2018-02-10T16:00:48.647Z,95.47
2018-02-10T16:03:16.957Z,97.80
2018-02-10T16:05:45.342Z,100.00
2018-02-10T16:08:13.690Z,87.25
2018-02-10T16:10:42.027Z,94.00
2018-02-10T16:13:10.748Z,97.20
2018-02-10T16:15:40.072Z,96.80
2018-02-10T16:18:08.725Z,98.80
2018-02-10T16:20:37.874Z,102.03
2018-02-10T16:23:06.364Z,97.72
2018-02-10T16:25:35.668Z,100.57
2018-02-10T16:28:04.079Z,104.35
2018-02-10T16:30:32.432Z,107.18
2018-02-10T16:33:00.770Z,100.75
2018-02-10T16:35:29.346Z,91.72
2018-02-10T16:37:57.719Z,97.72
2018-02-10T16:40:26.056Z,101.80
2018-02-10T16:42:54.452Z,103.05
2018-02-10T16:45:22.781Z,96.95
2018-02-10T16:47:51.106Z,103.68
2018-02-10T16:50:19.454Z,105.18
2018-02-10T16:52:47.804Z,108.70
2018-02-10T16:55:16.188Z,124.35
2018-02-10T16:57:44.803Z,105.90
2018-02-10T17:00:13.138Z,111.12
2018-02-10T17:02:41.685Z,107.72
2018-02-10T17:05:10.069Z,102.53
2018-02-10T17:07:38.409Z,128.38
2018-02-10T17:10:06.820Z,107.82
2018-02-10T17:12:35.175Z,111.30
2018-02-10T17:15:03.572Z,125.18
2018-02-10T17:17:31.909Z,112.55
2018-02-10T17:20:00.525Z,117.65
2018-02-10T17:22:28.863Z,124.90
2018-02-10T17:24:57.215Z,123.68
2018-02-10T17:27:26.383Z,122.32
2018-02-10T17:29:54.731Z,122.75
2018-02-10T17:32:23.074Z,130.50
2018-02-10T17:34:52.277Z,108.93
2018-02-10T17:37:20.638Z,118.03
2018-02-10T17:39:49.086Z,133.30
2018-02-10T17:42:18.501Z,132.35
2018-02-10T17:44:46.871Z,124.07
2018-02-10T17:47:15.225Z,149.02
2018-02-10T17:49:43.601Z,153.68
2018-02-10T17:52:12.006Z,145.90
2018-02-10T17:54:40.359Z,135.65
2018-02-10T17:57:08.812Z,137.32
2018-02-10T17:59:37.167Z,151.35
2018-02-10T18:02:06.312Z,147.60
2018-02-10T18:04:36.051Z,149.35
2018-02-10T18:07:04.387Z,152.38
2018-02-10T18:09:33.496Z,150.38
2018-02-10T18:12:01.846Z,143.62
2018-02-10T18:14:30.215Z,148.52
2018-02-10T18:16:58.556Z,157.02
2018-02-10T18:19:26.917Z,151.43
2018-02-10T18:21:55.257Z,136.73
2018-02-10T18:24:23.605Z,165.93
2018-02-10T18:29:31.716Z,153.02
2018-02-10T18:32:00.105Z,168.77
2018-02-10T18:34:28.482Z,168.70
2018-02-10T18:36:56.820Z,165.82
2018-02-10T18:39:25.177Z,162.25
2018-02-10T18:41:53.501Z,150.02
2018-02-10T18:44:21.878Z,147.18
2018-02-10T18:46:50.425Z,142.32
2018-02-10T18:49:18.782Z,155.32
2018-02-10T18:51:47.131Z,176.25
2018-02-10T18:54:15.785Z,156.40
2018-02-10T18:56:44.911Z,162.15
2018-02-10T18:59:13.236Z,158.32
2018-02-10T19:01:41.586Z,155.45
2018-02-10T19:04:10.031Z,164.15
2018-02-10T19:06:38.433Z,166.68
2018-02-10T19:09:07.104Z,150.95
2018-02-10T19:11:35.421Z,155.12
2018-02-10T19:14:03.783Z,155.25
2018-02-10T19:16:32.255Z,168.20
2018-02-10T19:19:00.619Z,153.32
2018-02-10T19:21:29.006Z,156.85
2018-02-10T19:23:57.368Z,144.32
2018-02-10T19:26:25.746Z,155.80
2018-02-10T19:28:54.206Z,158.35
2018-02-10T19:31:23.664Z,170.50
2018-02-10T19:33:52.050Z,160.70
2018-02-10T19:36:21.298Z,169.37
2018-02-10T19:38:49.732Z,161.95
2018-02-10T19:41:18.114Z,172.45
2018-02-10T19:43:46.478Z,156.27
2018-02-10T19:46:14.859Z,160.25
2018-02-10T19:48:43.185Z,165.23
2018-02-10T19:51:11.530Z,169.55
2018-02-10T19:53:40.117Z,157.15
2018-02-10T19:56:08.425Z,156.70
2018-02-10T19:58:36.791Z,161.52
2018-02-10T20:01:05.159Z,152.32
2018-02-10T20:03:33.570Z,165.73
2018-02-10T20:06:01.940Z,170.23
2018-02-10T20:08:30.363Z,172.02
2018-02-10T20:10:58.749Z,166.80
2018-02-10T20:13:27.085Z,166.73
2018-02-10T20:15:55.917Z,150.48
2018-02-10T20:18:24.272Z,157.05
2018-02-10T20:20:52.620Z,176.63
2018-02-10T20:23:21.083Z,154.52
2018-02-10T20:25:49.656Z,151.95
2018-02-10T20:28:18.008Z,144.80
2018-02-10T20:30:46.381Z,164.02
2018-02-10T20:33:14.759Z,142.07
2018-02-10T20:35:43.874Z,139.48
2018-02-10T20:38:12.825Z,128.10
2018-02-10T20:40:41.225Z,148.38
2018-02-10T20:43:09.593Z,144.25
2018-02-10T20:45:38.315Z,125.75
2018-02-10T20:48:06.807Z,135.45
2018-02-10T20:50:35.127Z,129.65
2018-02-10T20:53:04.280Z,116.62
2018-02-10T20:55:32.672Z,113.18
2018-02-10T20:58:01.007Z,123.95
2018-02-10T21:00:30.468Z,107.03
2018-02-10T21:02:58.956Z,118.07
2018-02-10T21:05:28.208Z,116.62
2018-02-10T21:07:56.557Z,123.20
2018-02-10T21:10:25.650Z,121.87
2018-02-10T21:12:54.773Z,122.47
2018-02-10T21:15:23.289Z,109.75
2018-02-10T21:17:51.682Z,118.68
2018-02-10T21:20:20.088Z,113.10
2018-02-10T21:22:48.561Z,118.80
2018-02-10T21:25:16.897Z,109.37
2018-02-10T21:27:45.273Z,116.85
2018-02-10T21:30:13.653Z,110.12
2018-02-10T21:32:41.985Z,117.30
2018-02-10T21:35:11.069Z,129.27
2018-02-10T21:37:39.452Z,124.80
2018-02-10T21:40:08.594Z,118.40
2018-02-10T21:42:36.968Z,110.65
2018-02-10T21:45:05.449Z,117.22
2018-02-10T21:47:33.873Z,107.53
2018-02-10T21:50:02.252Z,114.82
2018-02-10T21:52:30.730Z,104.15
2018-02-10T21:54:59.128Z,103.28
2018-02-10T21:57:27.476Z,114.88
2018-02-10T21:59:55.813Z,112.47
2018-02-10T22:02:24.134Z,117.43
2018-02-10T22:04:52.557Z,109.00
2018-02-10T22:07:22.188Z,102.53
2018-02-10T22:09:51.292Z,100.62
2018-02-10T22:12:19.609Z,93.00
2018-02-10T22:14:47.995Z,102.15
2018-02-10T22:17:16.348Z,97.28
2018-02-10T22:19:44.725Z,109.82
2018-02-10T22:22:13.108Z,110.47
2018-02-10T22:24:41.448Z,105.65
2018-02-10T22:27:10.561Z,105.60
2018-02-10T22:29:39.227Z,100.40
2018-02-10T22:32:08.318Z,107.03
2018-02-10T22:34:36.702Z,100.72
2018-02-10T22:37:05.835Z,106.70
2018-02-10T22:39:34.232Z,104.00
2018-02-10T22:42:02.599Z,106.63
2018-02-10T22:44:31.025Z,107.57
2018-02-10T22:46:59.365Z,108.35
2018-02-10T22:49:27.698Z,96.40
2018-02-10T22:51:56.327Z,100.85
2018-02-10T22:54:24.669Z,87.78
2018-02-10T22:56:53.089Z,92.35
2018-02-10T22:59:21.463Z,100.32
2018-02-10T23:01:49.830Z,102.53
2018-02-10T23:04:18.175Z,109.82
2018-02-10T23:06:46.581Z,107.22
2018-02-10T23:09:14.937Z,102.00
2018-02-10T23:11:43.283Z,118.45
2018-02-10T23:14:12.107Z,97.95
2018-02-10T23:16:41.277Z,110.85
2018-02-10T23:19:09.676Z,115.28
2018-02-10T23:21:38.980Z,104.50
2018-02-10T23:24:07.361Z,106.57
2018-02-10T23:26:36.558Z,106.00
2018-02-10T23:29:05.728Z,106.53
2018-02-10T23:31:34.056Z,110.93
2018-02-10T23:34:02.423Z,111.62
2018-02-10T23:36:31.913Z,103.47
2018-02-10T23:39:00.253Z,119.00
2018-02-10T23:41:28.702Z,112.05
2018-02-10T23:43:57.107Z,120.15
2018-02-10T23:46:25.428Z,114.07
2018-02-10T23:48:53.762Z,116.68
2018-02-10T23:51:22.145Z,117.25
2018-02-10T23:53:50.517Z,109.57
2018-02-10T23:56:19.726Z,114.93
2018-02-10T23:58:48.449Z,109.68
